Time;durP1;ratioP1;P1;durP2;ratioP2;P2;SDS_P1;SDS_P2;PMS_P1;PMS_P2;Temp;Humidity;BMP_temperature;BMP_pressure;BME280_temperature;BME280_humidity;BME280_pressure;Samples;Min_cycle;Max_cycle;Signal;HPM_P1;HPM_P2
2023/04/21 00:01:07;;;;;;;10.50;9.50;;;9.90;99.90;;;;;;5016845;28;20534;-73
2023/04/21 00:03:36;;;;;;;11.98;10.70;;;9.90;99.90;;;;;;5034033;28;20174;-72
2023/04/21 00:06:05;;;;;;;10.45;9.48;;;9.80;99.90;;;;;;5033087;28;20276;-72
2023/04/21 00:08:31;;;;;;;10.02;9.02;;;9.90;99.90;;;;;;5033299;28;20172;-72
2023/04/21 00:10:56;;;;;;;9.50;8.55;;;9.90;99.90;;;;;;5034153;28;20201;-72
2023/04/21 00:13:22;;;;;;;11.40;10.20;;;9.90;99.90;;;;;;5034087;28;20475;-72
2023/04/21 00:15:49;;;;;;;11.30;10.30;;;9.90;99.90;;;;;;5033666;28;20961;-72
2023/04/21 00:18:15;;;;;;;11.45;10.35;;;9.90;99.90;;;;;;5032930;28;20576;-73
2023/04/21 00:20:41;;;;;;;10.70;9.50;;;9.90;99.90;;;;;;5028939;28;20511;-73
2023/04/21 00:23:09;;;;;;;10.27;9.27;;;9.90;99.90;;;;;;5044803;28;20178;-73
2023/04/21 00:25:35;;;;;;;11.52;9.70;;;9.90;99.90;;;;;;5033392;28;20224;-73
2023/04/21 00:28:01;;;;;;;11.13;10.10;;;9.90;99.90;;;;;;5033904;28;20169;-73
2023/04/21 00:30:26;;;;;;;11.40;10.20;;;9.90;99.90;;;;;;5032427;28;21213;-73
2023/04/21 00:32:52;;;;;;;10.53;9.33;;;9.90;99.90;;;;;;5032585;28;20232;-73
2023/04/21 00:35:18;;;;;;;11.10;9.43;;;9.90;99.90;;;;;;5033836;28;20194;-73
2023/04/21 00:37:44;;;;;;;12.23;10.80;;;9.90;99.90;;;;;;5015285;28;20169;-73
2023/04/21 00:40:10;;;;;;;11.55;10.45;;;9.90;99.90;;;;;;5032592;28;20184;-73
2023/04/21 00:42:38;;;;;;;12.43;11.05;;;9.90;99.90;;;;;;5032508;28;20177;-73
2023/04/21 00:45:05;;;;;;;12.60;11.40;;;9.90;99.90;;;;;;5033610;28;20203;-73
2023/04/21 00:47:31;;;;;;;10.85;9.75;;;9.90;99.90;;;;;;5015404;28;20186;-73
2023/04/21 00:49:57;;;;;;;12.60;11.30;;;9.90;99.90;;;;;;5015734;28;20178;-73
2023/04/21 00:52:23;;;;;;;11.32;10.32;;;9.90;99.90;;;;;;5032363;28;21014;-74
2023/04/21 00:54:49;;;;;;;11.55;10.45;;;10.00;99.90;;;;;;5032397;28;20194;-74
2023/04/21 00:57:16;;;;;;;12.18;10.98;;;10.00;99.90;;;;;;5015336;28;20222;-73
2023/04/21 00:59:42;;;;;;;12.60;11.15;;;10.00;99.90;;;;;;5032027;28;20653;-73
2023/04/21 01:02:08;;;;;;;11.38;10.20;;;10.00;99.90;;;;;;5031086;28;20177;-73
2023/04/21 01:04:38;;;;;;;12.03;10.70;;;10.00;99.90;;;;;;5014845;28;20205;-73
2023/04/21 01:07:06;;;;;;;11.13;10.02;;;10.00;99.90;;;;;;4999188;28;20174;-73
2023/04/21 01:09:33;;;;;;;11.48;10.38;;;10.00;99.90;;;;;;5031514;28;20213;-73
2023/04/21 01:12:04;;;;;;;12.10;10.90;;;10.10;99.90;;;;;;5019102;28;20204;-73
2023/04/21 01:14:30;;;;;;;12.18;11.07;;;10.00;99.90;;;;;;5028777;28;20263;-73
2023/04/21 01:16:56;;;;;;;13.43;11.20;;;10.10;99.90;;;;;;5026296;28;20169;-73
2023/04/21 01:19:23;;;;;;;13.50;11.77;;;10.10;99.90;;;;;;5032000;28;20166;-73
2023/04/21 01:21:52;;;;;;;13.25;11.85;;;10.10;99.90;;;;;;5032760;28;20572;-73
2023/04/21 01:24:19;;;;;;;12.35;11.13;;;10.10;99.90;;;;;;5031788;28;20188;-73
2023/04/21 01:26:48;;;;;;;12.85;11.55;;;10.10;99.90;;;;;;5014737;28;20169;-73
2023/04/21 01:29:15;;;;;;;13.45;12.05;;;10.10;99.90;;;;;;5031580;28;20169;-73
2023/04/21 01:31:41;;;;;;;12.50;11.23;;;10.10;99.90;;;;;;5014279;28;20201;-72
2023/04/21 01:34:07;;;;;;;12.30;11.20;;;10.10;99.90;;;;;;5032823;28;20162;-73
2023/04/21 01:36:34;;;;;;;12.40;11.18;;;10.10;99.90;;;;;;5032135;28;20193;-73
2023/04/21 01:39:00;;;;;;;12.23;10.90;;;10.10;99.90;;;;;;5032715;28;20178;-73
2023/04/21 01:41:28;;;;;;;12.48;11.38;;;10.20;99.90;;;;;;5014564;28;20751;-73
2023/04/21 01:43:54;;;;;;;14.00;12.60;;;10.20;99.90;;;;;;5015128;28;20181;-73
2023/04/21 01:46:22;;;;;;;13.88;12.45;;;10.20;99.90;;;;;;5014137;28;20296;-73
2023/04/21 01:48:48;;;;;;;12.47;11.27;;;10.20;99.90;;;;;;5014551;28;20704;-73
2023/04/21 01:51:14;;;;;;;11.47;10.13;;;10.20;99.90;;;;;;5014601;28;20248;-73
2023/04/21 01:53:40;;;;;;;14.53;12.80;;;10.20;99.90;;;;;;5032181;28;20508;-73
2023/04/21 01:56:06;;;;;;;12.97;11.67;;;10.20;99.90;;;;;;5031727;28;20276;-73
2023/04/21 01:58:31;;;;;;;12.87;11.30;;;10.20;99.90;;;;;;5031618;28;20177;-73
2023/04/21 02:00:57;;;;;;;14.60;13.13;;;10.20;99.90;;;;;;5031193;28;21088;-73
2023/04/21 02:03:23;;;;;;;13.87;12.47;;;10.20;99.90;;;;;;5031891;28;20260;-73
2023/04/21 02:05:49;;;;;;;12.37;11.17;;;10.20;99.90;;;;;;5030640;28;20212;-73
2023/04/21 02:08:16;;;;;;;13.20;11.90;;;10.20;99.90;;;;;;5030470;28;20196;-73
2023/04/21 02:10:42;;;;;;;13.10;11.80;;;10.20;99.90;;;;;;5030826;28;20201;-73
2023/04/21 02:13:11;;;;;;;16.67;13.25;;;10.20;99.90;;;;;;5030075;28;20201;-73
2023/04/21 02:15:36;;;;;;;14.80;13.30;;;10.20;99.90;;;;;;5030168;28;20202;-73
2023/04/21 02:18:02;;;;;;;11.97;10.80;;;10.20;99.90;;;;;;5014295;28;20170;-73
2023/04/21 02:20:29;;;;;;;14.27;12.70;;;10.20;99.90;;;;;;5013867;28;20181;-72
2023/04/21 02:22:54;;;;;;;14.23;12.45;;;10.10;99.90;;;;;;5029375;28;20607;-73
2023/04/21 02:25:20;;;;;;;14.30;12.90;;;10.10;99.90;;;;;;5017252;28;20562;-73
2023/04/21 02:27:46;;;;;;;14.77;13.30;;;10.10;99.90;;;;;;5030380;28;20178;-73
2023/04/21 02:30:11;;;;;;;15.00;13.60;;;10.00;99.90;;;;;;5031391;28;20197;-73
2023/04/21 02:32:37;;;;;;;13.90;11.90;;;10.00;99.90;;;;;;5030227;28;20693;-73
2023/04/21 02:35:03;;;;;;;14.48;12.52;;;9.90;99.90;;;;;;5030223;28;20193;-73
2023/04/21 02:37:30;;;;;;;15.45;13.82;;;9.90;99.90;;;;;;5013779;28;20174;-73
2023/04/21 02:39:56;;;;;;;15.10;13.53;;;9.80;99.90;;;;;;5030301;28;20184;-73
2023/04/21 02:42:23;;;;;;;13.68;12.27;;;9.80;99.90;;;;;;5013574;28;20170;-73
2023/04/21 02:44:49;;;;;;;15.60;14.00;;;9.70;99.90;;;;;;5013651;28;20209;-73
2023/04/21 02:47:15;;;;;;;15.10;12.77;;;9.60;99.90;;;;;;5030957;28;20165;-73
2023/04/21 02:49:41;;;;;;;15.10;13.40;;;9.60;99.90;;;;;;5031592;28;20570;-73
2023/04/21 02:52:07;;;;;;;15.88;13.77;;;9.50;99.90;;;;;;5029554;28;20210;-73
2023/04/21 02:54:34;;;;;;;17.67;14.35;;;9.50;99.90;;;;;;5013657;28;20682;-73
2023/04/21 02:57:00;;;;;;;17.30;15.07;;;9.40;99.90;;;;;;5029391;28;20208;-73
2023/04/21 02:59:26;;;;;;;21.10;17.27;;;9.40;99.90;;;;;;5013665;28;20220;-73
2023/04/21 03:01:52;;;;;;;15.90;14.13;;;9.40;99.90;;;;;;5029636;28;20173;-73
2023/04/21 03:04:18;;;;;;;18.53;15.50;;;9.30;99.90;;;;;;5013036;28;20707;-73
2023/04/21 03:06:44;;;;;;;18.27;16.38;;;9.30;99.90;;;;;;5030035;28;20174;-73
2023/04/21 03:09:11;;;;;;;17.17;15.50;;;9.20;99.90;;;;;;5029464;28;20215;-73
2023/04/21 03:11:37;;;;;;;16.07;14.37;;;9.20;99.90;;;;;;5031077;28;20533;-73
2023/04/21 03:14:02;;;;;;;13.97;12.50;;;9.20;99.90;;;;;;5029165;28;20623;-73
2023/04/21 03:16:28;;;;;;;15.63;13.93;;;9.20;99.90;;;;;;4996675;28;20224;-73
2023/04/21 03:18:54;;;;;;;14.90;12.83;;;9.10;99.90;;;;;;5038578;28;20253;-73
2023/04/21 03:21:19;;;;;;;15.30;13.80;;;9.10;99.90;;;;;;5020186;28;20185;-73
2023/04/21 03:23:46;;;;;;;15.23;13.60;;;9.10;99.90;;;;;;5044490;28;20204;-73
2023/04/21 03:26:12;;;;;;;13.90;12.45;;;9.10;99.90;;;;;;5028743;28;20198;-73
2023/04/21 03:28:37;;;;;;;16.40;13.70;;;9.10;99.90;;;;;;5030946;28;20578;-73
2023/04/21 03:31:06;;;;;;;18.93;15.07;;;9.10;99.90;;;;;;5033356;28;20211;-73
2023/04/21 03:33:32;;;;;;;16.67;14.70;;;9.00;99.90;;;;;;5031938;28;20818;-78
2023/04/21 03:35:58;;;;;;;14.40;12.90;;;9.00;99.90;;;;;;5029206;28;20193;-78
2023/04/21 03:38:23;;;;;;;19.07;16.43;;;9.00;99.90;;;;;;5029712;28;20524;-78
2023/04/21 03:40:50;;;;;;;16.77;14.57;;;9.00;99.90;;;;;;5029263;28;20730;-78
2023/04/21 03:43:15;;;;;;;16.90;14.45;;;9.00;99.90;;;;;;5013253;28;20177;-78
2023/04/21 03:45:41;;;;;;;16.20;14.07;;;9.00;99.90;;;;;;5028951;28;20235;-77
2023/04/21 03:48:07;;;;;;;16.90;15.20;;;8.90;99.90;;;;;;5035093;28;20182;-78
2023/04/21 03:50:32;;;;;;;17.30;15.47;;;8.90;99.90;;;;;;5030916;28;20189;-78
2023/04/21 03:52:58;;;;;;;17.60;14.87;;;8.90;99.90;;;;;;5030319;28;20166;-78
2023/04/21 03:55:24;;;;;;;15.77;13.10;;;8.90;99.90;;;;;;5029586;28;20225;-78
2023/04/21 03:57:49;;;;;;;16.20;14.47;;;8.90;99.90;;;;;;5029076;28;20544;-79
2023/04/21 04:00:15;;;;;;;18.27;15.67;;;8.90;99.90;;;;;;5029684;28;20173;-78
2023/04/21 04:02:41;;;;;;;18.30;15.17;;;8.90;99.90;;;;;;5030285;28;20207;-78
2023/04/21 04:05:07;;;;;;;16.40;14.70;;;8.90;99.90;;;;;;5030825;28;20628;-78
2023/04/21 04:07:34;;;;;;;16.73;15.02;;;8.80;99.90;;;;;;5030216;28;20166;-78
2023/04/21 04:09:59;;;;;;;17.25;15.45;;;8.90;99.90;;;;;;5030838;28;20185;-79
2023/04/21 04:12:25;;;;;;;16.43;14.73;;;8.90;99.90;;;;;;5045820;28;20178;-78
2023/04/21 04:14:51;;;;;;;17.33;15.53;;;8.80;99.90;;;;;;5037927;28;20206;-79
2023/04/21 04:17:17;;;;;;;18.03;16.13;;;8.80;99.90;;;;;;5046252;28;20224;-78
2023/04/21 04:19:42;;;;;;;17.63;15.80;;;8.80;99.90;;;;;;5048996;28;20571;-79
2023/04/21 04:22:08;;;;;;;21.30;18.23;;;8.80;99.90;;;;;;5038334;28;20515;-79
2023/04/21 04:24:34;;;;;;;15.67;13.87;;;8.80;99.90;;;;;;5034361;28;20181;-78
2023/04/21 04:27:02;;;;;;;16.45;14.73;;;8.80;99.90;;;;;;5031056;28;20206;-79
2023/04/21 04:29:28;;;;;;;18.30;15.50;;;8.80;99.90;;;;;;5028825;28;20174;-80
2023/04/21 04:31:54;;;;;;;16.98;15.20;;;8.90;99.90;;;;;;5030277;28;20201;-79
2023/04/21 04:34:22;;;;;;;17.10;15.27;;;8.90;99.90;;;;;;5029923;28;20173;-79
2023/04/21 04:36:49;;;;;;;16.83;14.55;;;8.90;99.90;;;;;;5030406;28;20637;-79
2023/04/21 04:39:17;;;;;;;15.82;14.13;;;8.90;99.90;;;;;;5033922;28;20579;-79
2023/04/21 04:41:43;;;;;;;19.17;16.05;;;9.00;99.90;;;;;;5032138;28;20217;-79
2023/04/21 04:44:09;;;;;;;16.83;14.90;;;9.00;99.90;;;;;;5033765;28;20335;-79
2023/04/21 04:46:35;;;;;;;15.43;13.90;;;9.00;99.90;;;;;;5033085;28;20233;-79
2023/04/21 04:49:01;;;;;;;16.63;14.75;;;9.00;99.90;;;;;;5032258;28;20700;-79
2023/04/21 04:51:27;;;;;;;15.75;14.15;;;9.00;99.90;;;;;;5031751;28;20681;-79
2023/04/21 04:53:53;;;;;;;18.50;16.40;;;9.00;99.90;;;;;;5033694;28;20177;-79
2023/04/21 04:56:19;;;;;;;20.30;17.50;;;9.00;99.90;;;;;;5031802;28;20616;-81
2023/04/21 04:58:47;;;;;;;19.03;16.70;;;9.10;99.90;;;;;;5032238;28;20580;-80
2023/04/21 05:01:16;;;;;;;19.05;15.40;;;9.10;99.90;;;;;;5034004;28;20177;-80
2023/04/21 05:03:45;;;;;;;18.88;16.98;;;9.10;99.90;;;;;;5036930;28;20184;-80
2023/04/21 05:06:12;;;;;;;18.23;16.38;;;9.20;99.90;;;;;;5031822;28;20221;-80
2023/04/21 05:08:40;;;;;;;19.80;17.70;;;9.20;99.90;;;;;;5031706;28;20177;-80
2023/04/21 05:11:06;;;;;;;19.77;16.63;;;9.20;99.90;;;;;;5038981;28;20208;-80
2023/04/21 05:13:32;;;;;;;20.17;16.52;;;9.20;99.90;;;;;;5043051;28;20180;-80
2023/04/21 05:16:00;;;;;;;16.83;15.10;;;9.30;99.90;;;;;;5053004;28;20207;-80
2023/04/21 05:18:27;;;;;;;17.05;15.25;;;9.40;99.90;;;;;;5051417;28;20173;-80
2023/04/21 05:20:53;;;;;;;18.15;15.30;;;9.40;99.90;;;;;;5050877;28;20173;-80
2023/04/21 05:23:19;;;;;;;20.23;16.20;;;9.50;99.90;;;;;;5032684;28;20226;-80
2023/04/21 05:25:45;;;;;;;17.40;15.50;;;9.50;99.90;;;;;;5032843;28;20200;-80
2023/04/21 05:28:11;;;;;;;17.50;15.80;;;9.50;99.90;;;;;;5031415;28;20177;-80
2023/04/21 05:30:36;;;;;;;17.43;15.70;;;9.50;99.90;;;;;;5032727;28;20628;-80
2023/04/21 05:33:02;;;;;;;23.50;17.77;;;9.50;99.90;;;;;;5031535;28;20181;-80
2023/04/21 05:35:31;;;;;;;19.10;16.30;;;9.50;99.90;;;;;;5031230;28;20228;-79
2023/04/21 05:37:57;;;;;;;19.17;17.20;;;9.50;99.90;;;;;;5032401;28;20739;-80
2023/04/21 05:40:22;;;;;;;19.07;17.10;;;9.50;99.90;;;;;;5037197;28;20176;-79
2023/04/21 05:42:48;;;;;;;19.23;17.10;;;9.60;99.90;;;;;;5032668;28;20177;-80
2023/04/21 05:45:14;;;;;;;19.20;16.43;;;9.60;99.90;;;;;;5031187;28;20542;-81
2023/04/21 05:47:39;;;;;;;19.07;16.40;;;9.60;99.90;;;;;;5028288;28;20200;-80
2023/04/21 05:50:06;;;;;;;18.10;16.17;;;9.60;99.90;;;;;;5030399;28;20185;-80
2023/04/21 05:52:33;;;;;;;19.23;17.08;;;9.60;99.90;;;;;;5034077;28;20178;-80
2023/04/21 05:55:00;;;;;;;20.10;18.00;;;9.60;99.90;;;;;;5032473;28;20267;-80
2023/04/21 05:57:26;;;;;;;19.48;17.38;;;9.70;99.90;;;;;;5031747;28;20176;-80
2023/04/21 05:59:52;;;;;;;18.70;16.80;;;9.60;99.90;;;;;;5032525;28;20185;-79
2023/04/21 06:02:18;;;;;;;17.80;14.53;;;9.70;99.90;;;;;;5030494;28;20181;-79
2023/04/21 06:04:44;;;;;;;18.40;16.38;;;9.70;99.90;;;;;;5032166;28;20229;-79
2023/04/21 06:07:12;;;;;;;18.27;16.00;;;9.70;99.90;;;;;;5037742;28;20687;-79
2023/04/21 06:09:38;;;;;;;18.02;16.08;;;9.80;99.90;;;;;;5026429;28;20577;-80
2023/04/21 06:12:05;;;;;;;18.30;16.40;;;9.80;99.90;;;;;;5050179;28;20207;-80
2023/04/21 06:14:30;;;;;;;17.17;15.38;;;9.90;99.90;;;;;;5050656;28;20176;-80
2023/04/21 06:16:56;;;;;;;21.17;17.67;;;10.00;99.90;;;;;;5055668;28;20165;-79
2023/04/21 06:19:22;;;;;;;16.73;15.00;;;10.10;99.90;;;;;;5050341;28;20664;-79
2023/04/21 06:21:47;;;;;;;18.23;16.27;;;10.30;99.90;;;;;;5037168;28;20536;-79
2023/04/21 06:24:13;;;;;;;25.07;22.43;;;10.40;99.90;;;;;;5029537;28;20754;-79
2023/04/21 06:26:39;;;;;;;20.83;18.60;;;10.50;99.90;;;;;;5030213;28;20571;-79
2023/04/21 06:29:04;;;;;;;17.30;15.53;;;10.70;99.90;;;;;;5013453;28;20182;-79
2023/04/21 06:31:30;;;;;;;20.37;18.30;;;10.80;99.90;;;;;;5029935;28;20777;-81
2023/04/21 06:33:56;;;;;;;20.33;18.33;;;11.00;99.90;;;;;;5031481;28;20614;-79
2023/04/21 06:36:21;;;;;;;15.70;14.10;;;11.10;99.90;;;;;;5013638;28;20197;-80
2023/04/21 06:38:48;;;;;;;17.90;16.03;;;11.20;99.90;;;;;;5030500;28;20645;-79
2023/04/21 06:41:13;;;;;;;17.33;15.48;;;11.30;99.90;;;;;;5030938;28;20595;-79
2023/04/21 06:43:39;;;;;;;17.13;15.33;;;11.40;99.90;;;;;;5031488;28;20166;-80
2023/04/21 06:46:05;;;;;;;17.30;15.50;;;11.50;99.90;;;;;;5030780;28;20259;-79
2023/04/21 06:48:31;;;;;;;14.30;12.97;;;11.60;99.90;;;;;;5026792;28;21034;-79
2023/04/21 06:50:56;;;;;;;17.33;15.57;;;11.80;99.90;;;;;;5026450;28;20773;-79
2023/04/21 06:53:23;;;;;;;14.93;13.48;;;12.20;99.90;;;;;;5015317;28;20672;-79
2023/04/21 06:55:49;;;;;;;15.17;13.60;;;12.70;99.90;;;;;;5010052;28;20615;-79
2023/04/21 06:58:15;;;;;;;15.43;13.93;;;13.10;99.90;;;;;;5010076;28;20175;-79
2023/04/21 07:00:40;;;;;;;15.40;13.53;;;13.60;99.90;;;;;;5026746;28;20585;-78
2023/04/21 07:03:06;;;;;;;15.00;13.47;;;13.90;99.90;;;;;;5026610;28;20177;-79
2023/04/21 07:05:32;;;;;;;15.43;13.77;;;14.00;99.90;;;;;;5042427;28;20204;-78
2023/04/21 07:08:00;;;;;;;13.90;12.60;;;14.10;99.90;;;;;;5049164;28;20177;-78
2023/04/21 07:10:26;;;;;;;15.77;14.27;;;14.20;99.90;;;;;;5051021;28;20204;-77
2023/04/21 07:12:53;;;;;;;14.43;12.90;;;14.50;99.90;;;;;;5049190;28;20583;-76
2023/04/21 07:15:19;;;;;;;12.90;11.60;;;14.90;99.90;;;;;;5050650;28;20615;-73
2023/04/21 07:17:44;;;;;;;14.35;12.95;;;15.20;99.90;;;;;;5050550;28;20706;-74
2023/04/21 07:20:11;;;;;;;15.40;13.90;;;15.50;99.90;;;;;;5048992;28;21227;-74
2023/04/21 07:22:37;;;;;;;15.20;13.80;;;16.10;99.90;;;;;;5032462;28;20189;-74
2023/04/21 07:25:06;;;;;;;14.87;13.33;;;16.40;99.90;;;;;;5030333;28;20600;-73
2023/04/21 07:27:33;;;;;;;14.70;13.20;;;17.00;99.90;;;;;;5030603;28;20944;-73
2023/04/21 07:29:59;;;;;;;14.93;13.47;;;17.90;99.90;;;;;;5012801;28;20590;-74
2023/04/21 07:32:25;;;;;;;15.67;14.17;;;18.40;99.90;;;;;;5030737;28;20618;-74
2023/04/21 07:34:51;;;;;;;11.80;10.70;;;18.80;99.90;;;;;;5029318;28;20232;-76
2023/04/21 07:37:17;;;;;;;13.87;12.60;;;19.30;99.90;;;;;;5029286;28;21168;-77
2023/04/21 07:39:43;;;;;;;11.50;10.40;;;19.50;99.90;;;;;;5046282;28;20209;-76
2023/04/21 07:42:09;;;;;;;14.40;11.07;;;19.80;99.90;;;;;;5029020;28;20627;-76
2023/04/21 07:44:35;;;;;;;11.37;10.27;;;20.00;99.90;;;;;;5045892;28;20174;-77
2023/04/21 07:47:01;;;;;;;11.10;10.00;;;20.30;99.90;;;;;;5029432;28;20594;-76
2023/04/21 07:49:27;;;;;;;12.37;11.27;;;20.60;99.90;;;;;;5030876;28;20580;-77
2023/04/21 07:51:52;;;;;;;11.67;10.67;;;20.80;99.90;;;;;;5028907;28;20542;-77
2023/04/21 07:54:18;;;;;;;10.40;9.50;;;20.80;99.90;;;;;;5029339;28;20270;-77
2023/04/21 07:56:44;;;;;;;11.40;10.20;;;21.00;99.90;;;;;;5028837;28;20166;-77
2023/04/21 07:59:09;;;;;;;10.97;9.87;;;21.00;99.90;;;;;;5035560;28;20173;-77
2023/04/21 08:01:35;;;;;;;10.97;9.97;;;20.90;99.90;;;;;;5042032;28;20263;-76
2023/04/21 08:04:01;;;;;;;10.87;9.83;;;20.70;99.90;;;;;;5050128;28;20185;-77
2023/04/21 08:06:26;;;;;;;10.43;9.43;;;20.20;99.90;;;;;;5048959;28;20650;-76
2023/04/21 08:08:54;;;;;;;11.03;10.03;;;19.80;99.90;;;;;;5048673;28;20606;-76
2023/04/21 08:11:21;;;;;;;12.07;10.07;;;19.30;99.90;;;;;;5048446;28;20205;-76
2023/04/21 08:13:47;;;;;;;13.23;11.97;;;18.90;99.90;;;;;;5035950;28;20710;-76
2023/04/21 08:16:13;;;;;;;12.27;10.97;;;18.40;99.90;;;;;;5054066;28;20630;-76
2023/04/21 08:18:39;;;;;;;13.00;11.80;;;18.20;99.90;;;;;;5039152;28;20604;-76
2023/04/21 08:21:04;;;;;;;12.90;11.67;;;18.10;99.90;;;;;;5033999;28;20633;-76
2023/04/21 08:23:30;;;;;;;13.40;12.10;;;18.10;99.90;;;;;;5034215;28;20688;-76
2023/04/21 08:25:56;;;;;;;11.47;10.37;;;18.10;99.90;;;;;;5032540;28;20202;-76
2023/04/21 08:28:22;;;;;;;12.40;11.20;;;18.00;99.90;;;;;;5034583;28;20232;-77
2023/04/21 08:30:48;;;;;;;12.50;11.20;;;17.90;99.90;;;;;;5034254;28;20730;-77
2023/04/21 08:33:13;;;;;;;12.17;11.00;;;17.80;99.90;;;;;;5016218;28;20265;-76
2023/04/21 08:35:40;;;;;;;12.70;11.17;;;17.80;99.90;;;;;;5033375;28;20190;-77
2023/04/21 08:38:07;;;;;;;13.47;12.17;;;17.60;99.90;;;;;;5016099;28;20174;-76
2023/04/21 08:40:36;;;;;;;11.23;10.17;;;17.80;99.90;;;;;;5032086;28;20590;-76
2023/04/21 08:43:06;;;;;;;12.60;11.30;;;18.00;99.90;;;;;;5032443;28;20933;-77
2023/04/21 08:45:33;;;;;;;13.30;11.90;;;18.20;99.90;;;;;;5032587;28;20636;-76
2023/04/21 08:48:00;;;;;;;11.23;9.50;;;18.40;99.90;;;;;;5021106;28;20602;-76
2023/04/21 08:50:28;;;;;;;12.73;11.50;;;18.70;99.90;;;;;;5013811;28;21176;-77
2023/04/21 08:52:55;;;;;;;12.20;11.00;;;19.10;99.90;;;;;;5013187;28;20628;-78
2023/04/21 08:55:27;;;;;;;11.70;10.60;;;19.40;99.90;;;;;;5020088;28;20640;-77
2023/04/21 08:57:53;;;;;;;11.17;10.10;;;19.90;99.90;;;;;;5032207;28;20675;-77
2023/04/21 09:00:19;;;;;;;11.60;10.40;;;20.70;99.90;;;;;;5032165;28;21064;-77
2023/04/21 09:02:54;;;;;;;10.37;9.37;;;21.60;99.90;;;;;;5031734;28;20719;-77
2023/04/21 09:05:25;;;;;;;9.70;8.87;;;22.10;99.90;;;;;;5033332;28;20599;-77
2023/04/21 09:07:52;;;;;;;11.20;10.20;;;22.40;99.90;;;;;;5032665;28;20579;-77
2023/04/21 09:10:23;;;;;;;10.73;9.80;;;22.80;99.90;;;;;;5015689;28;20635;-77
2023/04/21 09:12:51;;;;;;;10.53;9.53;;;23.50;99.90;;;;;;5032673;28;20746;-77
2023/04/21 09:15:19;;;;;;;10.90;10.00;;;24.00;99.90;;;;;;5031734;28;20624;-77
2023/04/21 09:17:45;;;;;;;10.17;9.23;;;24.70;99.90;;;;;;5032948;28;20580;-77
2023/04/21 09:20:13;;;;;;;12.10;11.00;;;25.40;99.90;;;;;;5015283;28;20599;-78
2023/04/21 09:22:38;;;;;;;8.67;7.90;;;25.50;99.20;;;;;;5031930;28;21175;-78
2023/04/21 09:25:04;;;;;;;10.00;9.10;;;25.70;99.90;;;;;;5032392;28;20691;-77
2023/04/21 09:27:30;;;;;;;8.73;7.93;;;26.00;99.90;;;;;;5032868;28;20536;-77
2023/04/21 09:30:03;;;;;;;10.17;9.27;;;26.10;99.90;;;;;;5032451;28;20576;-77
2023/04/21 09:32:36;;;;;;;12.27;11.07;;;26.00;98.40;;;;;;5031680;28;20231;-77
2023/04/21 09:35:02;;;;;;;10.73;9.83;;;25.10;92.40;;;;;;5032395;28;20590;-77
2023/04/21 09:37:33;;;;;;;11.03;10.03;;;24.60;95.80;;;;;;5031440;28;21005;-76
2023/04/21 09:39:58;;;;;;;11.67;10.67;;;24.20;95.60;;;;;;5032626;28;20189;-77
2023/04/21 09:42:29;;;;;;;10.00;8.93;;;24.10;96.70;;;;;;5031052;28;21127;-77
2023/04/21 09:44:55;;;;;;;9.50;8.60;;;24.20;98.90;;;;;;5030979;28;20213;-77
2023/04/21 09:47:21;;;;;;;10.03;9.07;;;24.20;98.50;;;;;;5032480;28;20579;-77
2023/04/21 09:49:51;;;;;;;10.53;9.63;;;24.30;99.40;;;;;;5030900;28;20698;-77
2023/04/21 09:52:18;;;;;;;9.90;8.90;;;24.50;98.40;;;;;;5039454;28;20749;-77
2023/04/21 09:54:50;;;;;;;10.27;9.27;;;24.70;98.90;;;;;;5033471;28;20623;-77
2023/04/21 09:57:23;;;;;;;9.77;8.87;;;24.90;98.20;;;;;;5025612;28;20583;-77
2023/04/21 09:59:55;;;;;;;10.97;8.83;;;24.90;97.20;;;;;;5047571;28;20935;-77
2023/04/21 10:02:24;;;;;;;12.13;11.00;;;25.00;97.30;;;;;;5043654;28;20716;-77
2023/04/21 10:04:50;;;;;;;9.57;8.67;;;25.20;94.00;;;;;;5036190;28;20304;-78
2023/04/21 10:07:16;;;;;;;7.90;7.20;;;25.60;96.90;;;;;;5036583;28;20683;-75
2023/04/21 10:09:53;;;;;;;8.50;7.67;;;26.20;97.70;;;;;;5041827;28;20595;-76
2023/04/21 10:12:20;;;;;;;8.90;8.07;;;26.80;90.70;;;;;;5029805;28;20207;-75
2023/04/21 10:14:50;;;;;;;10.27;9.40;;;27.20;93.80;;;;;;5041099;28;20631;-76
2023/04/21 10:17:16;;;;;;;8.03;7.33;;;27.00;91.50;;;;;;5027245;28;20632;-76
2023/04/21 10:19:53;;;;;;;8.20;7.40;;;27.10;91.70;;;;;;5049732;28;20634;-76
2023/04/21 10:22:30;;;;;;;11.27;10.17;;;27.10;83.10;;;;;;5028693;28;20264;-77
2023/04/21 10:24:57;;;;;;;9.10;8.20;;;27.00;81.10;;;;;;5032928;28;20620;-77
2023/04/21 10:27:43;;;;;;;8.83;8.03;;;26.90;81.80;;;;;;5020479;28;20699;-77
2023/04/21 10:30:22;;;;;;;9.03;8.17;;;26.90;78.30;;;;;;5038486;28;20654;-77
2023/04/21 10:33:02;;;;;;;8.10;7.40;;;27.00;82.50;;;;;;4997192;28;21016;-77
2023/04/21 10:35:58;;;;;;;7.20;6.17;;;26.80;82.20;;;;;;5013917;28;20730;-77
2023/04/21 10:38:34;;;;;;;9.13;8.17;;;26.50;81.10;;;;;;5031268;28;20572;-77
2023/04/21 10:41:23;;;;;;;8.73;7.87;;;26.10;80.50;;;;;;5030563;28;20729;-77
2023/04/21 10:43:50;;;;;;;9.33;7.87;;;25.70;75.60;;;;;;5020668;28;20975;-77
2023/04/21 10:46:33;;;;;;;7.50;6.70;;;25.50;82.90;;;;;;5029890;28;20741;-77
2023/04/21 10:49:10;;;;;;;8.53;6.33;;;25.30;79.10;;;;;;5039165;28;21563;-77
2023/04/21 10:52:06;;;;;;;6.80;5.90;;;25.30;82.20;;;;;;5049252;28;20993;-77
2023/04/21 10:54:42;;;;;;;6.90;6.20;;;25.00;77.40;;;;;;5049872;28;20607;-77
2023/04/21 10:57:18;;;;;;;8.53;7.60;;;24.90;81.00;;;;;;5051085;28;20570;-76
2023/04/21 10:59:45;;;;;;;7.17;6.47;;;24.70;74.60;;;;;;5050250;28;20980;-77
2023/04/21 11:02:15;;;;;;;5.90;5.30;;;24.60;82.50;;;;;;5050962;28;20579;-78
2023/04/21 11:04:46;;;;;;;7.93;7.13;;;24.70;82.40;;;;;;5059803;28;20599;-77
2023/04/21 11:07:13;;;;;;;8.73;7.83;;;24.70;79.20;;;;;;5043679;28;20616;-77
2023/04/21 11:09:40;;;;;;;5.77;5.10;;;24.40;75.70;;;;;;5039554;28;20592;-77
2023/04/21 11:12:11;;;;;;;7.93;7.13;;;24.20;79.20;;;;;;5042038;28;20647;-76
2023/04/21 11:14:39;;;;;;;6.40;5.77;;;24.20;77.60;;;;;;5033214;28;20616;-76
2023/04/21 11:17:12;;;;;;;8.70;6.97;;;24.40;80.50;;;;;;5040659;28;20587;-76
2023/04/21 11:19:38;;;;;;;6.33;5.77;;;24.60;83.00;;;;;;5050243;28;20580;-76
2023/04/21 11:22:04;;;;;;;6.63;5.77;;;25.00;86.50;;;;;;5037213;28;20729;-76
2023/04/21 11:24:31;;;;;;;7.10;6.50;;;25.40;84.00;;;;;;5031041;28;20585;-76
2023/04/21 11:26:57;;;;;;;5.90;5.40;;;25.60;83.00;;;;;;5030636;28;20585;-76
2023/04/21 11:29:23;;;;;;;6.67;6.03;;;25.60;80.80;;;;;;5030798;28;20573;-76
2023/04/21 11:31:50;;;;;;;6.55;5.60;;;25.60;79.10;;;;;;5029491;28;20714;-76
2023/04/21 11:34:19;;;;;;;7.20;6.43;;;25.40;78.00;;;;;;5030744;28;20588;-77
2023/04/21 11:36:46;;;;;;;6.00;5.50;;;25.40;78.00;;;;;;5029510;28;21253;-76
2023/04/21 11:39:15;;;;;;;6.60;5.80;;;25.60;80.70;;;;;;5029311;28;20593;-76
2023/04/21 11:41:43;;;;;;;8.00;6.80;;;25.80;80.30;;;;;;5013185;28;20582;-76
2023/04/21 11:44:10;;;;;;;5.50;5.00;;;26.20;82.20;;;;;;5036408;28;20598;-76
2023/04/21 11:46:45;;;;;;;5.93;5.33;;;26.70;82.50;;;;;;5032548;28;20666;-76
2023/04/21 11:49:12;;;;;;;5.27;4.77;;;26.70;74.80;;;;;;5033634;28;20587;-73
2023/04/21 11:51:40;;;;;;;4.30;3.90;;;26.50;72.30;;;;;;5033229;28;20643;-73
2023/04/21 11:54:07;;;;;;;3.83;3.40;;;26.30;71.60;;;;;;5034392;28;20611;-73
2023/04/21 11:56:35;;;;;;;4.90;4.40;;;26.30;74.10;;;;;;5033257;28;20712;-74
2023/04/21 11:59:13;;;;;;;5.73;5.13;;;26.20;72.20;;;;;;5038195;28;20683;-73
2023/04/21 12:01:47;;;;;;;4.70;4.20;;;26.00;69.30;;;;;;5045028;28;20595;-73
2023/04/21 12:04:17;;;;;;;4.50;3.87;;;25.60;68.10;;;;;;5032723;28;20595;-73
2023/04/21 12:06:44;;;;;;;4.90;4.43;;;25.10;66.70;;;;;;5030579;28;21244;-73
2023/04/21 12:09:16;;;;;;;4.80;4.40;;;24.80;68.90;;;;;;5047601;28;20943;-73
2023/04/21 12:11:42;;;;;;;6.50;5.90;;;24.40;66.50;;;;;;5052568;28;20743;-73
2023/04/21 12:14:08;;;;;;;5.80;4.77;;;24.20;66.30;;;;;;5046035;28;20162;-72
2023/04/21 12:16:36;;;;;;;5.83;5.13;;;24.00;67.80;;;;;;5034597;28;20216;-72
2023/04/21 12:19:02;;;;;;;7.17;5.83;;;23.90;69.90;;;;;;5044004;28;20173;-72
2023/04/21 12:21:29;;;;;;;5.43;4.80;;;23.90;71.10;;;;;;5034115;28;20612;-73
2023/04/21 12:23:55;;;;;;;5.57;4.63;;;23.90;70.30;;;;;;5034280;28;20182;-72
2023/04/21 12:26:22;;;;;;;6.03;3.90;;;23.90;73.10;;;;;;5032015;28;20718;-72
2023/04/21 12:28:49;;;;;;;5.37;4.83;;;24.00;75.10;;;;;;5016696;28;20587;-72
2023/04/21 12:31:15;;;;;;;4.60;4.20;;;24.20;72.50;;;;;;5032171;28;20644;-71
2023/04/21 12:33:41;;;;;;;6.20;4.93;;;24.10;73.40;;;;;;5032546;28;20580;-72
2023/04/21 12:36:07;;;;;;;5.90;5.30;;;23.90;71.00;;;;;;5033536;28;20247;-71